Terminal Aerodrome Forecast
Issued by NWS

Home | Current Version | Previous Version | Text Only | Print | Product List | Glossary On
Versions: 1 2 3 4 5 6 7 8 9 10 11 12 13 14 15 16 17 18
000
FTUS46 KLOX 010500
TAFLGB
TAF
KLGB 010538Z 0106/0206 23007KT 6SM -SHRA SCT020 OVC035
     FM010800 13007KT 6SM -SHRA BR SCT015 OVC035
      TEMPO 0108/0112 4SM SHRA BKN015
     FM011300 15007KT P6SM -SHRA VCTS SCT025CB BKN035
     FM011800 19007KT P6SM -SHRA SCT025 OVC040
     FM020400 22007KT P6SM VCSH SCT025 BKN035=

USA.gov is the U.S. government's official web portal to all federal, state and local government web resources and services.